Texas City — WDD4983 — position and weather

sailwx.info

Track history (hours):
 
Tides and Currents Weather Stations Pressure Air Temp Water Temp Dewpoint Dewpoint Depression Visibility Wind Speed Wind Dir Waves Ship Positions

Texas City

Owner: Marathon Petroleum Company LP, Findlay, OH. More information available from US FCC via Universal Licensing System and Coast Guard Vessel Documentation Center.

Last reported at 2017-Mar-30 02:31 UTC. Time now 2017-Mar-30 02:47 UTC.
Position N 29°44' W 095°09'.

Length 124 m; draft 2.9 m.

Type: . MMSI: 367135470.

Date/timePositionNaut miles runAvg speedWind from/ knotsBaromVisibWave heightAir tempDewpointWater temp
2017-Mar-30 02:31N 29°44' W 095°09'6 5.2
2017-Mar-30 01:25N 29°47' W 095°04'1 0.0
2017-Mar-28 04:03N 29°47' W 095°04'1 1.2
2017-Mar-28 03:17N 29°46' W 095°05'0 0.1
2017-Mar-28 02:34N 29°46' W 095°05'0 0.0
2017-Mar-28 01:34N 29°46' W 095°05'1 0.3
2017-Mar-27 21:16N 29°47' W 095°04'0 0.2
2017-Mar-27 20:29N 29°47' W 095°04'0 0.5
2017-Mar-27 19:31N 29°47' W 095°04'3 3.3
2017-Mar-27 18:32N 29°44' W 095°07'6 5.1
2017-Mar-27 17:22N 29°44' W 095°13'0 0.0
2017-Mar-27 15:26N 29°44' W 095°13'0 0.0
2017-Mar-27 14:29N 29°44' W 095°13'0 0.0
2017-Mar-27 13:19N 29°44' W 095°13'0 0.0
2017-Mar-27 12:13N 29°44' W 095°13'0 0.0
2017-Mar-27 11:25N 29°44' W 095°13'0 0.0
2017-Mar-27 10:33N 29°44' W 095°13'0 0.0
2017-Mar-27 09:31N 29°44' W 095°13'0 0.0
2017-Mar-27 08:31N 29°44' W 095°13'0 0.0
2017-Mar-27 07:33N 29°44' W 095°13'0 0.0
2017-Mar-27 06:32N 29°44' W 095°13'0 0.0
2017-Mar-27 05:33N 29°44' W 095°13'0 0.0
2017-Mar-27 04:33N 29°44' W 095°13'0 0.0
2017-Mar-27 03:33N 29°44' W 095°13'0 0.0
2017-Mar-27 02:33N 29°44' W 095°13'0 0.0
2017-Mar-27 00:31N 29°44' W 095°13'3 2.5
2017-Mar-26 23:30N 29°45' W 095°11'5 4.4
2017-Mar-26 22:21N 29°46' W 095°05'2 2.0
2017-Mar-26 21:20N 29°48' W 095°04'0 0.5
2017-Mar-26 20:32N 29°47' W 095°04'1 0.3
2017-Mar-26 17:24N 29°46' W 095°05'  
2017-Mar-21 21:33N 29°46' W 095°06'  
Track history (hours):
 
Tides and Currents Weather Stations Pressure Air Temp Water Temp Dewpoint Dewpoint Depression Visibility Wind Speed Wind Dir Waves Ship Positions

Texas City

Owner: Marathon Petroleum Company LP, Findlay, OH. More information available from US FCC via Universal Licensing System and Coast Guard Vessel Documentation Center.

Last reported at 2017-Mar-30 02:31 UTC. Time now 2017-Mar-30 02:47 UTC.
Position N 29°44' W 095°09'.

Length 124 m; draft 2.9 m.

Type: . MMSI: 367135470.

Date/timePositionNaut miles runAvg speedWind from/ knotsBaromVisibWave heightAir tempDewpointWater temp
2017-Mar-30 02:31N 29°44' W 095°09'6 5.2
2017-Mar-30 01:25N 29°47' W 095°04'1 0.0
2017-Mar-28 04:03N 29°47' W 095°04'1 1.2
2017-Mar-28 03:17N 29°46' W 095°05'0 0.1
2017-Mar-28 02:34N 29°46' W 095°05'0 0.0
2017-Mar-28 01:34N 29°46' W 095°05'1 0.3
2017-Mar-27 21:16N 29°47' W 095°04'0 0.2
2017-Mar-27 20:29N 29°47' W 095°04'0 0.5
2017-Mar-27 19:31N 29°47' W 095°04'3 3.3
2017-Mar-27 18:32N 29°44' W 095°07'6 5.1
2017-Mar-27 17:22N 29°44' W 095°13'0 0.0
2017-Mar-27 15:26N 29°44' W 095°13'0 0.0
2017-Mar-27 14:29N 29°44' W 095°13'0 0.0
2017-Mar-27 13:19N 29°44' W 095°13'0 0.0
2017-Mar-27 12:13N 29°44' W 095°13'0 0.0
2017-Mar-27 11:25N 29°44' W 095°13'0 0.0
2017-Mar-27 10:33N 29°44' W 095°13'0 0.0
2017-Mar-27 09:31N 29°44' W 095°13'0 0.0
2017-Mar-27 08:31N 29°44' W 095°13'0 0.0
2017-Mar-27 07:33N 29°44' W 095°13'0 0.0
2017-Mar-27 06:32N 29°44' W 095°13'0 0.0
2017-Mar-27 05:33N 29°44' W 095°13'0 0.0
2017-Mar-27 04:33N 29°44' W 095°13'0 0.0
2017-Mar-27 03:33N 29°44' W 095°13'0 0.0
2017-Mar-27 02:33N 29°44' W 095°13'0 0.0
2017-Mar-27 00:31N 29°44' W 095°13'3 2.5
2017-Mar-26 23:30N 29°45' W 095°11'5 4.4
2017-Mar-26 22:21N 29°46' W 095°05'2 2.0
2017-Mar-26 21:20N 29°48' W 095°04'0 0.5
2017-Mar-26 20:32N 29°47' W 095°04'1 0.3
2017-Mar-26 17:24N 29°46' W 095°05'  
2017-Mar-21 21:33N 29°46' W 095°06'  

Dump ship's entire track history